AirNav   Air Wisconsin pilot careers
 
 1053 users online  

5B9 Dean Memorial Airport
Haverhill, New Hampshire, USA

GOING TO HAVERHILL?


FAA INFORMATION EFFECTIVE 16 AUGUST 2018

Location

FAA Identifier: 5B9
Lat/Long: 44-04-48.6222N / 072-00-27.9357W
44-04.810370N / 072-00.465595W
44.0801728 / -72.0077599
(estimated)
Elevation: 581.7 ft. / 177.3 m (surveyed)
Variation: 16W (2005)
From city: 3 miles NE of HAVERHILL, NH
Time zone: UTC -4 (UTC -5 during Standard Time)
Zip code: 03774

Airport Operations

Airport use: Open to the public
Activation date: 07/1902
Control tower: no
ARTCC: BOSTON CENTER
FSS: BANGOR FLIGHT SERVICE STATION
NOTAMs facility: BGR (NOTAM-D service available)
Attendance: IREG
Wind indicator: lighted
Segmented circle: no
Lights: ACTVT LIRL RY 01/19 & WINDSOCK - CTAF.

Airport Communications

CTAF/UNICOM: 122.8
  • APCH/DEP SVC PRVDD BY BOSTON ARTCC ON FREQS 135.7/282.2 (MONTPELIER RCAG).

Nearby radio navigation aids

VOR radial/distance  VOR name  Freq  Var
MPVr107/19.0MONTPELIER VOR/DME110.8016W
LEBr036/25.7LEBANON VOR/DME113.7015W

 
NDB name  Hdg/Dist  Freq  Var  ID
MAHN236/21.938617WGMA --. -- .-
HANOVER033/23.827615WLAH .-.. .- ....

Airport Services

Fuel available: 100LL
Parking: tiedowns
Airframe service: NONE
Powerplant service: NONE
Bottled oxygen: NONE
Bulk oxygen: NONE

Runway Information

Runway 1/19

Dimensions: 2511 x 58 ft. / 765 x 18 m
Surface: asphalt, in fair condition
Weight bearing capacity: 
Single wheel: 8.5
Runway edge lights: low intensity
NSTD SPACING, FIRST 185 FT RWY 01 NOT LGTD.
RUNWAY 1  RUNWAY 19
Latitude: 44-04.605733N44-05.015008N
Longitude: 072-00.425992W072-00.505202W
Elevation: 581.7 ft.546.0 ft.
Gradient: 1.4% UP1.4% DOWN
Traffic pattern: leftleft
Runway heading: 008 magnetic, 352 true188 magnetic, 172 true
Displaced threshold: 185 ft.no
Markings: basic, in good conditionnonprecision, in good condition
Touchdown point: yes, no lightsyes, no lights
Obstructions: 81 ft. trees, 332 ft. from runway, 208 ft. right of centerline, 2:1 slope to clear
PUBLIC DIRT ROAD 5 FT FROM RY END EXTENDING BOTH LEFT AND RIGHT OF CL. ALSO TREES 66FT RWY END 150 FT LEFT.
25 ft. bldg, lighted, 429 ft. from runway, 173 ft. left of centerline, 9:1 slope to clear
35 FT UTILITY POLE 160 FT FM RY END 204 FT LEFT OF CL LIGHTED

Airport Ownership and Management from official FAA records

Ownership: Publicly-owned
Owner: TOWN OF HAVERHILL
2975 DARTMOUTH COLLEGE HWY
N. HAVERHILL, NH 03774
Phone 603-787-6800
DEAN MEMORIAL ARPT COMMISSION.
Manager: DENNIS CUNNINGHAM
2975 DARTMOUTH COLLEGE RD
N. HAVERHILL, NH 03774
Phone (603) 738-4158

Airport Operational Statistics

Aircraft based on the field: 11
Single engine airplanes: 11
    
Aircraft operations: avg 57/week *
75% local general aviation
25% transient general aviation
* for 12-month period ending 31 December 2016

Additional Remarks

FOR WINTER COND CALL 603-738-4158 24 HRS BEFORE USE.
COLD TEMPERATURE RESTRICTED AIRPORT. ALTITUDE CORRECTION REQUIRED AT OR BELOW -27C.

Instrument Procedures

NOTE: All procedures below are presented as PDF files. If you need a reader for these files, you should download the free Adobe Reader.

NOT FOR NAVIGATION. Please procure official charts for flight.
FAA instrument procedures published for use from 16 August 2018 at 0901Z to 13 September 2018 at 0900Z.

 
IAPs - Instrument Approach Procedures
RNAV (GPS) RWY 19 **CHANGED**   download (232KB)
NOTE: Special Take-Off Minimums/Departure Procedures apply   download (178KB)

Other nearby airports with instrument procedures:

KMPV - Edward F Knapp State Airport (25 nm W)
KHIE - Mount Washington Regional Airport (26 nm NE)
KCDA - Caledonia County Airport (29 nm N)
KLEB - Lebanon Municipal Airport (30 nm SW)
KMVL - Morrisville-Stowe State Airport (38 nm NW)
 
Loc | Ops | Rwys | IFR | FBO | Links
Com | Nav | Svcs | Stats | Notes


 
Area around 5B9 (Dean Memorial Airport)
 
Road maps at: MapQuest Bing Google
 
Aerial photo
WARNING: Photo may not be current or correct
Aerial photo of 5B9 (Dean Memorial Airport)
Photo courtesy of Aerial Design Photography

Do you have a better or more recent aerial photo of Dean Memorial Airport that you would like to share? If so, please send us your photo.

 
Sectional chart

 
Airport distance calculator
Flying to Dean Memorial Airport? Find the distance to fly.

From to 5B9

Sunrise and sunset
Times for 19-Aug-2018
 Local
(UTC-4)
 Zulu
(UTC)
Morning civil twilight05:2609:26
Sunrise05:5709:57
Sunset19:4623:46
Evening civil twilight20:1700:17

Current date and time
Zulu (UTC)  19-Aug-2018 14:41:55
Local (UTC-4)  19-Aug-2018 10:41:55
 
METAR
K1V4 
20nm N 
191354Z AUTO 18/15 A3008 RMK AO1 SLP179 T01780150
K1P1 
21nm SE 
191415Z AUTO 00000KT 10SM CLR 20/15 A3007 RMK AO2 T02030152
KMPV 
25nm W 
191351Z AUTO 00000KT 10SM CLR 16/16 A3014 RMK AO2 SLP205 T01610156 $
KHIE 
26nm NE 
191415Z AUTO 00000KT 10SM SCT003 17/16 A3010 RMK AO2 T01670161 $
KCDA 
29nm N 
191415Z AUTO 00000KT 10SM CLR 21/15 A3012 RMK AO2 T02100150
KLEB 
30nm SW 
191402Z 34005KT 10SM FEW008 21/15 A3007 RMK AO2 T02060150
KMWN 
33nm E 
191355Z 09023G29KT 1/16SM FG BKN000 07/07 RMK FG BKN000
KMVL 
36nm NW 
191354Z AUTO 00000KT 10SM SCT002 17/17 A3010 RMK AO2 SLP194 T01670167
KCWN 
36nm E 
191358Z AUTO 34010KT 10SM CLR 14/06 A3022 RMK AO2 SLP072 T01420064 $
KLCI 
40nm SE 
191256Z AUTO 06007KT 10SM CLR 20/14 A3006 RMK AO2 SLP193 T02000144
TAF
KMPV 
25nm W 
191257Z 1913/2012 00000KT 1/4SM FG VV001 TEMPO 1913/1914 3SM BR BKN003 FM191400 VRB02KT P6SM VCFG SCT008 FM191500 08007KT P6SM FEW200 FM200700 VRB04KT 6SM BR FEW015
KHIE 
26nm NE 
191120Z 1912/2012 00000KT 1/2SM FG VV002 FM191400 06006KT P6SM FEW250 FM200600 00000KT 1/2SM FG VV001
KLEB 
30nm SW 
191258Z 1913/2012 36007KT 5SM BR OVC001 FM191400 03007KT P6SM FEW250 FM200700 00000KT 1/2SM FG VV001
NOTAMs
Click for the latest NOTAMs
NOTAMs are issued by the DoD/FAA and will open in a separate window not controlled by AirNav.

 

 
 

FBO, Fuel Providers, and Aircraft Ground Support

  
 Business Name 
 
 Contact 
 
 Services / Description 
 
Fuel Prices
 
Comments
  
Dean Memorial Airport 603-738-4158
no information available

If you are affiliated with Dean Memorial Airport and would like to show here your services, contact info, web link, logo, and more, click here
100LL
AS $4.95 
 Updated 30-May-2018
 
   write
AS=Assisted/Self Service
Update Fuel Prices
 

Would you like to see your business listed on this page?

 If your business provides an interesting product or service to pilots, flight crews, aircraft, or users of the Dean Memorial Airport, you should consider listing it here.  To start the listing process, click on the button below
 
Add a business
 

Other Pages about Dean Memorial Airport

www.haverhill-nh.com/index.asp?SEC=2E4CB1B4-EC8A-4673-8079-2C23DD1DFB53&Type=B_BASIC
 
Update a link
 
Copyright © AirNav, LLC. All rights reserved. Privacy Policy  Contact